FW0780 Weather Reports


time (UTC)temp
F
wind
direction
speed
knots
gust
knots
rain 1hr
in
rain 24hr
in
rain mn
in
humidity
%
barometer
mb
20260905223048 55 267 1.7 4.3 0.03 0.04 0.02 88 1016.3
20260905221600 55 268 3.5 7.0 0.03 0.04 0.02 86 1016.2
20260905220042 57 274 6.1 13.0 0.01 0.02 0.00 81 1016.5
20260905214538 60 307 9.6 16.5 0.00 0.01 0.01 71 1016.4
20260905211532 58 233 1.7 2.6 0.00 0.01 0.01 76 1015.4
20260905210031 58 249 1.7 3.5 0.00 0.01 0.01 75 1015.4
20260905204530 58 260 2.6 5.2 0.00 0.01 0.01 76 1015.4
20260905203027 59 252 2.6 6.1 0.00 0.01 0.01 73 1015.4
20260905201527 59 252 2.6 7.0 0.00 0.01 0.01 73 1015.3
20260905200028 59 238 2.6 6.1 0.00 0.01 0.01 74 1015.2
20260905194526 59 258 1.7 6.1 0.00 0.01 0.01 74 1015.3
20260905193024 59 257 1.7 4.3 0.00 0.01 0.01 73 1015.1
20260905191526 59 257 1.7 3.5 0.00 0.01 0.01 72 1015.1
20260905190035 60 254 0.9 2.6 0.00 0.01 0.01 70 1015.1
20260905184519 61 256 0.9 3.5 0.00 0.01 0.01 69 1015.0
20260905183018 61 261 1.7 7.8 0.00 0.01 0.01 67 1014.8
20260905181517 62 256 5.2 13.0 0.00 0.01 0.01 65 1014.8
20260905180019 63 300 7.0 16.5 0.00 0.01 0.01 62 1015.2
20260905174514 64 249 1.7 3.5 0.00 0.01 0.01 60 1014.7
20260905173013 65 238 2.6 4.3 0.00 0.01 0.01 58 1014.5
20260905171512 66 248 2.6 5.2 0.00 0.01 0.01 56 1014.3
20260905170012 66 261 2.6 8.7 0.00 0.01 0.01 54 1014.2
20260905164509 67 288 4.3 10.4 0.00 0.01 0.01 52 1014.2
20260905163007 68 298 6.1 13.9 0.00 0.01 0.01 50 1014.2
20260905161511 68 273 8.7 13.0 0.00 0.01 0.01 49 1014.2
20260905160007 69 288 7.8 14.8 0.00 0.01 0.01 49 1014.0
20260905154503 69 281 7.8 13.9 0.00 0.01 0.01 50 1013.9
20260905153002 69 277 7.0 13.9 0.00 0.01 0.01 48 1013.9
20260905150059 70 273 9.6 16.5 0.00 0.01 0.01 48 1013.7
20260905144559 70 288 6.1 13.9 0.00 0.01 0.01 48 1013.6
20260905143158 70 277 8.7 22.6 0.00 0.01 0.01 48 1013.6
20260905141556 71 289 13.0 18.2 0.00 0.01 0.01 47 1013.4
20260905134601 71 270 9.6 15.6 0.00 0.01 0.01 48 1013.3
20260905133053 70 273 10.4 15.6 0.00 0.01 0.01 50 1013.2
20260905131552 71 281 7.8 20.9 0.00 0.01 0.01 52 1013.2
20260905130052 70 283 8.7 17.4 0.00 0.01 0.01 51 1013.2
20260905124555 70 265 12.2 21.7 0.00 0.01 0.01 52 1013.3
20260905123050 69 255 9.6 16.5 0.00 0.01 0.01 54 1013.5
20260905121549 69 269 6.1 16.5 0.00 0.01 0.01 56 1013.5
20260905120100 70 275 8.7 16.5 0.00 0.01 0.01 53 1013.5
20260905114601 70 245 9.6 16.5 0.00 0.01 0.01 54 1013.5
20260905113055 68 281 7.0 21.7 0.00 0.01 0.01 55 1013.6
20260905111632 69 281 7.8 16.5 0.00 0.01 0.01 57 1013.7
20260905110043 68 242 7.8 16.5 0.00 0.01 0.01 60 1013.6
20260905104542 68 264 8.7 20.0 0.00 0.01 0.01 60 1013.6
20260905103040 66 254 7.0 13.9 0.00 0.01 0.01 67 1013.5
20260905101537 66 277 9.6 14.8 0.00 0.01 0.01 66 1013.3
20260905100036 66 257 7.8 15.6 0.00 0.01 0.01 69 1013.1
20260905094536 65 266 7.8 16.5 0.00 0.01 0.01 69 1013.1
20260905093040 66 280 6.1 18.2 0.00 0.01 0.01 70 1013.1
20260905091533 66 261 13.0 18.2 0.00 0.01 0.01 70 1013.1
20260905090032 65 244 8.7 17.4 0.00 0.01 0.01 74 1013.2
20260905084533 64 254 12.2 18.2 0.00 0.01 0.01 76 1013.3
20260905083030 64 270 7.8 13.9 0.00 0.01 0.01 76 1013.2
20260905081527 64 212 5.2 11.3 0.00 0.01 0.01 80 1013.0
20260905074523 63 267 9.6 14.8 0.00 0.01 0.01 82 1012.8
20260905073029 63 248 9.6 12.2 0.00 0.01 0.01 82 1012.7
20260905071520 63 247 6.1 13.9 0.00 0.01 0.01 84 1012.4
20260905070025 62 250 7.8 13.9 0.00 0.01 0.01 85 1012.5
20260905064534 62 258 7.0 13.9 0.00 0.01 0.01 85 1012.2
20260905063014 62 260 4.3 11.3 0.00 0.01 0.01 86 1012.1
20260905061509 61 236 6.1 13.9 0.00 0.01 0.01 86 1011.7
20260905060007 61 223 6.1 9.6 0.00 0.01 0.01 85 1011.4
20260905054508 61 230 7.8 11.3 0.00 0.01 0.01 85 1011.8
20260905053002 61 252 6.1 15.6 0.00 0.01 0.01 85 1011.4
20260905051600 61 281 8.7 12.2 0.00 0.01 0.01 84 1011.2
20260905044555 61 253 7.0 13.0 0.00 0.01 0.01 84 1010.6
20260905043056 61 265 5.2 13.0 0.00 0.01 0.01 84 1010.4
20260905041556 61 258 9.6 17.4 0.00 0.01 0.01 83 1010.2
20260905040049 61 259 7.8 13.9 0.00 0.01 0.01 84 1009.9
20260905034546 61 240 8.7 14.8 0.00 0.01 0.01 83 1009.6
20260905033044 61 234 6.1 17.4 0.00 0.01 0.01 84 1009.9
20260905031542 61 268 8.7 14.8 0.00 0.01 0.01 84 1009.7
20260905030038 61 236 9.6 16.5 0.01 0.01 0.01 83 1008.9
20260905024535 61 240 7.0 14.8 0.01 0.01 0.01 83 1009.1
20260905023032 62 227 8.7 14.8 0.01 0.01 0.01 82 1009.0
20260905021537 63 242 10.4 16.5 0.00 0.00 0.00 79 1008.6
20260905020028 64 236 7.0 14.8 0.00 0.00 0.00 77 1008.3
20260905014523 64 254 8.7 16.5 0.00 0.00 0.00 78 1008.6
20260905013024 64 255 7.0 15.6 0.00 0.00 0.00 78 1008.5
20260905011519 65 271 11.3 19.1 0.00 0.00 0.00 78 1008.4
20260905010016 66 284 12.2 20.0 0.00 0.00 0.00 77 1008.1
20260905004612 67 284 10.4 16.5 0.00 0.00 0.00 75 1007.9
20260905003009 67 285 12.2 16.5 0.00 0.00 0.00 73 1007.6
20260905001505 68 278 7.0 18.2 0.00 0.00 0.00 73 1007.4
20260905000005 68 281 9.6 15.6 0.00 0.00 0.00 78 1007.2
20260904234607 68 265 1.7 5.2 0.00 0.00 0.00 80 1006.9
20260904233057 69 241 2.6 5.2 0.00 0.00 0.00 79 1006.8
20260904231553 69 296 7.0 13.9 0.00 0.00 0.00 76 1006.9
20260904230050 70 307 5.2 14.8 0.00 0.00 0.00 72 1006.7
20260904224547 71 273 6.1 15.6 0.00 0.00 0.00 71 1006.5